createdAt,value
2022-12-08T00:03:51.338Z,4.90
2022-12-08T00:08:50.521Z,13.90
2022-12-08T00:13:52.643Z,18.50
2022-12-08T00:18:51.786Z,9.00
2022-12-08T00:23:52.926Z,6.80
2022-12-08T00:28:54.076Z,6.40
2022-12-08T00:33:55.288Z,14.90
2022-12-08T00:38:57.402Z,5.50
2022-12-08T00:43:57.551Z,6.60
2022-12-08T00:48:56.715Z,8.40
2022-12-08T00:53:57.849Z,4.30
2022-12-08T00:58:58.996Z,8.70
2022-12-08T01:04:00.153Z,6.70
2022-12-08T01:09:01.297Z,5.30
2022-12-08T01:14:02.406Z,6.50
2022-12-08T01:19:03.535Z,3.80
2022-12-08T01:24:04.688Z,5.20
2022-12-08T01:29:05.824Z,6.20
2022-12-08T01:34:06.951Z,3.30
2022-12-08T01:39:08.120Z,5.30
2022-12-08T01:44:09.234Z,4.80
2022-12-08T01:49:10.365Z,6.10
2022-12-08T01:54:11.779Z,6.40
2022-12-08T01:59:12.889Z,3.80
2022-12-08T02:04:14.056Z,6.00
2022-12-08T02:09:15.199Z,5.30
2022-12-08T02:14:17.310Z,2.80
2022-12-08T02:19:32.784Z,3.10
2022-12-08T02:24:17.420Z,2.30
2022-12-08T02:29:20.550Z,3.30
2022-12-08T02:34:20.671Z,4.30
2022-12-08T02:39:19.819Z,4.30
2022-12-08T02:44:20.925Z,3.20
2022-12-08T02:49:23.016Z,2.50
2022-12-08T02:54:21.141Z,3.50
2022-12-08T02:59:21.255Z,4.00
2022-12-08T03:04:22.382Z,4.40
2022-12-08T03:09:23.762Z,3.60
2022-12-08T03:14:24.933Z,2.20
2022-12-08T03:19:26.284Z,2.20
2022-12-08T03:24:27.402Z,2.80
2022-12-08T03:29:29.515Z,2.50
2022-12-08T03:34:28.661Z,2.20
2022-12-08T03:39:30.774Z,1.90
2022-12-08T03:44:30.896Z,2.10
2022-12-08T03:49:30.022Z,2.40
2022-12-08T03:54:31.157Z,1.90
2022-12-08T03:59:32.279Z,1.90
2022-12-08T04:04:33.412Z,2.90
2022-12-08T04:09:34.572Z,2.10
2022-12-08T04:14:34.713Z,2.50
2022-12-08T04:19:36.798Z,2.20
2022-12-08T04:24:35.963Z,2.10
2022-12-08T04:29:37.382Z,2.00
2022-12-08T04:34:38.537Z,2.90
2022-12-08T04:39:39.630Z,1.70
2022-12-08T04:44:41.765Z,3.70
2022-12-08T04:49:40.925Z,3.00
2022-12-08T04:54:42.068Z,3.10
2022-12-08T04:59:43.177Z,3.60
2022-12-08T05:04:44.280Z,2.50
2022-12-08T05:09:46.431Z,3.10
2022-12-08T05:14:45.592Z,3.50
2022-12-08T05:19:46.690Z,3.20
2022-12-08T05:24:48.102Z,4.00
2022-12-08T05:29:49.211Z,3.60
2022-12-08T05:34:50.351Z,3.20
2022-12-08T05:39:52.504Z,2.40
2022-12-08T05:44:51.664Z,2.50
2022-12-08T05:49:53.769Z,2.00
2022-12-08T05:54:52.951Z,1.70
2022-12-08T05:59:54.080Z,2.70
2022-12-08T06:04:54.211Z,4.00
2022-12-08T06:09:56.346Z,2.10
2022-12-08T06:14:55.577Z,2.20
2022-12-08T06:19:56.723Z,2.20
2022-12-08T06:24:58.844Z,1.90
2022-12-08T06:29:58.983Z,2.90
2022-12-08T06:34:58.113Z,2.90
2022-12-08T06:39:59.561Z,1.90
2022-12-08T06:45:00.743Z,2.40
2022-12-08T06:50:02.180Z,5.30
2022-12-08T06:55:02.549Z,4.00
2022-12-08T07:00:03.330Z,2.70
2022-12-08T07:05:03.778Z,2.90
2022-12-08T07:10:03.295Z,2.20
2022-12-08T07:15:02.649Z,2.90
2022-12-08T07:20:04.130Z,2.80
2022-12-08T07:25:03.483Z,3.40
2022-12-08T07:30:05.895Z,4.30
2022-12-08T07:35:05.259Z,4.30
2022-12-08T07:40:06.716Z,3.80
2022-12-08T07:45:06.108Z,3.50
2022-12-08T07:50:08.431Z,2.00
2022-12-08T07:55:07.626Z,2.50
2022-12-08T08:00:08.829Z,3.10
2022-12-08T08:05:10.104Z,2.70
2022-12-08T08:10:11.321Z,2.50
2022-12-08T08:15:12.457Z,5.60
2022-12-08T08:20:13.628Z,3.80
2022-12-08T08:25:15.798Z,4.00
2022-12-08T08:30:20.348Z,3.60
2022-12-08T08:35:15.891Z,4.20
2022-12-08T08:40:17.045Z,3.10
2022-12-08T08:45:20.211Z,2.50
2022-12-08T08:50:19.439Z,3.00
2022-12-08T08:55:20.615Z,2.40
2022-12-08T09:00:23.758Z,3.00
2022-12-08T09:05:22.911Z,3.00
2022-12-08T09:10:24.127Z,2.40
2022-12-08T09:15:25.358Z,3.30
2022-12-08T09:20:26.552Z,3.60
2022-12-08T09:25:28.682Z,3.90
2022-12-08T09:30:28.862Z,4.10
2022-12-08T09:35:28.031Z,4.00
2022-12-08T09:40:30.177Z,4.40
2022-12-08T09:45:29.327Z,6.60
2022-12-08T09:50:31.475Z,4.20
2022-12-08T09:55:30.635Z,4.20
2022-12-08T10:00:32.777Z,3.90
2022-12-08T10:05:31.944Z,4.70
2022-12-08T10:10:33.060Z,5.40
2022-12-08T10:15:34.230Z,3.60
2022-12-08T10:20:35.358Z,3.90
2022-12-08T10:25:36.469Z,4.10
2022-12-08T10:30:39.639Z,3.30
2022-12-08T10:35:38.777Z,3.70
2022-12-08T10:40:45.609Z,4.70
2022-12-08T10:45:41.858Z,3.10
2022-12-08T10:50:42.061Z,4.10
2022-12-08T10:55:41.187Z,3.40
2022-12-08T11:00:42.432Z,4.90
2022-12-08T11:05:43.613Z,4.40
2022-12-08T11:10:45.852Z,3.70
2022-12-08T11:15:44.943Z,7.10
2022-12-08T11:20:46.088Z,4.90
2022-12-08T11:25:47.200Z,3.10
2022-12-08T11:30:48.427Z,3.60
2022-12-08T11:35:49.563Z,3.20
2022-12-08T11:40:51.721Z,3.60
2022-12-08T11:45:50.885Z,5.50
2022-12-08T11:50:53.137Z,5.10
2022-12-08T11:55:52.252Z,6.10
2022-12-08T12:00:53.419Z,6.50
2022-12-08T12:06:13.090Z,5.90
2022-12-08T12:10:54.586Z,3.50
2022-12-08T12:15:54.740Z,3.50
2022-12-08T12:20:56.957Z,4.80
2022-12-08T12:25:56.151Z,4.40
2022-12-08T12:30:57.377Z,11.40
2022-12-08T12:35:59.540Z,8.00
2022-12-08T12:40:58.672Z,8.60
2022-12-08T12:45:59.855Z,6.80
2022-12-08T12:51:00.978Z,4.90
2022-12-08T12:56:01.120Z,4.20
2022-12-08T13:01:02.270Z,4.20
2022-12-08T13:06:03.439Z,4.20
2022-12-08T13:11:04.593Z,5.60
2022-12-08T13:16:15.740Z,6.10
2022-12-08T13:21:06.068Z,4.90
2022-12-08T13:26:08.254Z,6.40
2022-12-08T13:31:07.506Z,5.30
2022-12-08T13:36:08.704Z,6.20
2022-12-08T13:41:09.894Z,5.60
2022-12-08T13:46:57.917Z,6.80
2022-12-08T14:01:12.036Z,6.90
2022-12-08T14:06:13.007Z,6.80
2022-12-08T14:11:12.478Z,7.10
2022-12-08T14:16:13.737Z,7.30
2022-12-08T14:21:22.270Z,7.40
2022-12-08T14:26:15.898Z,6.50
2022-12-08T14:31:15.160Z,6.40
2022-12-08T14:36:16.364Z,7.20
2022-12-08T14:41:17.496Z,9.40
2022-12-08T14:46:17.727Z,10.00
2022-12-08T14:51:18.872Z,9.00
2022-12-08T14:56:20.056Z,8.20
2022-12-08T15:01:23.278Z,8.90
2022-12-08T15:06:22.615Z,10.20
2022-12-08T15:11:23.767Z,10.40
2022-12-08T15:16:24.994Z,10.10
2022-12-08T15:21:26.183Z,8.70
2022-12-08T15:26:27.342Z,9.90
2022-12-08T15:31:28.491Z,10.90
2022-12-08T15:36:29.635Z,18.30
2022-12-08T15:41:30.754Z,15.00
2022-12-08T15:46:31.928Z,13.40
2022-12-08T15:51:33.135Z,12.90
2022-12-08T15:56:34.484Z,15.20
2022-12-08T16:01:35.617Z,15.20
2022-12-08T16:12:04.418Z,18.00
2022-12-08T16:16:35.145Z,16.80
2022-12-08T16:27:50.865Z,15.70
2022-12-08T16:31:36.285Z,18.30
2022-12-08T16:36:37.505Z,18.70
2022-12-08T16:41:38.795Z,17.10
2022-12-08T16:46:40.051Z,18.40
2022-12-08T16:51:40.351Z,18.30
2022-12-08T16:56:42.538Z,20.80
2022-12-08T17:01:41.766Z,19.20
2022-12-08T17:06:42.048Z,20.90
2022-12-08T17:11:44.052Z,20.20
2022-12-08T17:16:43.505Z,17.40
2022-12-08T17:21:44.757Z,16.90
2022-12-08T17:26:45.943Z,15.90
2022-12-08T17:31:47.165Z,17.00
2022-12-08T17:36:48.460Z,18.30
2022-12-08T17:41:49.644Z,19.80
2022-12-08T17:46:53.253Z,20.20
2022-12-08T17:51:51.714Z,27.40
2022-12-08T17:56:52.539Z,20.60
2022-12-08T18:01:52.103Z,22.00
2022-12-08T18:06:52.625Z,17.60
2022-12-08T18:11:53.004Z,17.30
2022-12-08T18:16:52.235Z,18.30
2022-12-08T18:21:53.414Z,22.00
2022-12-08T18:26:54.596Z,19.00
2022-12-08T18:31:56.806Z,25.00
2022-12-08T18:36:56.178Z,31.30
2022-12-08T18:41:58.492Z,21.90
2022-12-08T18:46:58.812Z,25.50
2022-12-08T18:51:58.036Z,26.30
2022-12-08T18:56:59.434Z,30.00
2022-12-08T19:01:59.895Z,29.80
2022-12-08T19:06:59.470Z,23.20
2022-12-08T19:12:00.125Z,21.10
2022-12-08T19:17:02.277Z,31.50
2022-12-08T19:22:00.913Z,32.60
2022-12-08T19:27:02.236Z,32.60
2022-12-08T19:32:03.598Z,23.70
2022-12-08T19:37:04.852Z,27.10
2022-12-08T19:42:06.270Z,26.00
2022-12-08T19:47:06.890Z,22.20
2022-12-08T19:52:06.373Z,28.20
2022-12-08T19:57:05.640Z,29.60
2022-12-08T20:02:07.920Z,25.00
2022-12-08T20:07:07.438Z,25.60
2022-12-08T20:12:06.861Z,8.90
2022-12-08T20:17:08.340Z,8.70
2022-12-08T20:22:10.604Z,18.40
2022-12-08T20:27:09.767Z,22.60
2022-12-08T20:32:11.282Z,20.70
2022-12-08T20:37:10.663Z,17.80
2022-12-08T20:42:12.101Z,17.00
2022-12-08T20:47:13.530Z,14.80
2022-12-08T20:52:14.798Z,13.10
2022-12-08T20:57:16.108Z,13.70
2022-12-08T21:02:17.557Z,15.20
2022-12-08T21:07:18.077Z,14.80
2022-12-08T21:12:17.322Z,16.20
2022-12-08T21:17:18.622Z,16.70
2022-12-08T21:22:19.894Z,13.20
2022-12-08T21:27:21.036Z,15.50
2022-12-08T21:32:27.217Z,12.10
2022-12-08T21:37:23.191Z,15.30
2022-12-08T21:42:27.949Z,15.60
2022-12-08T21:47:25.619Z,16.00
2022-12-08T21:52:24.789Z,17.00
2022-12-08T21:57:26.022Z,17.30
2022-12-08T22:02:28.366Z,15.20
2022-12-08T22:07:27.986Z,14.30
2022-12-08T22:12:29.481Z,15.50
2022-12-08T22:17:28.876Z,15.80
2022-12-08T22:22:28.130Z,31.60
2022-12-08T22:27:29.386Z,16.60
2022-12-08T22:32:30.574Z,15.50
2022-12-08T22:37:31.774Z,15.10
2022-12-08T22:42:33.048Z,12.30
2022-12-08T22:47:35.266Z,13.30
2022-12-08T22:52:34.603Z,14.20
2022-12-08T22:57:35.999Z,15.30
2022-12-08T23:02:37.149Z,15.20
2022-12-08T23:07:39.621Z,14.10
2022-12-08T23:12:39.847Z,12.50
2022-12-08T23:17:39.168Z,14.90
2022-12-08T23:22:40.451Z,13.10
2022-12-08T23:27:41.573Z,14.40
2022-12-08T23:32:42.923Z,15.00
2022-12-08T23:37:45.111Z,14.30
2022-12-08T23:42:44.246Z,13.20
2022-12-08T23:47:46.582Z,12.40
2022-12-08T23:52:45.905Z,12.50
2022-12-08T23:57:47.269Z,14.80
